This is the latest recevied weather packets stored in our database for station/object K9JVA. If no packets are shown the sender has not sent any weather packets the latest 10 day(s).
| Time | Temp. | Humidity | Pressure | Rain* | Wind** | Luminosity | Snow |
|---|---|---|---|---|---|---|---|
| 1777654025 | 11.67° C | 74% | 1013.7 hPa | 0 mm | - | - | - |
| 1777651805 | 11.67° C | 75% | 1013.2 hPa | 0 mm | - | - | - |
| 1777650007 | 11.11° C | 79% | 1013.2 hPa | 0 mm | - | - | - |
| 1777649407 | 10.56° C | 80% | 1013.1 hPa | 0 mm | - | - | - |
| 1777647847 | 10° C | 80% | 1012.9 hPa | 0 mm | - | - | - |
| 1777646947 | 9.44° C | 81% | 1012.7 hPa | 0 mm | - | - | - |
| 1777646048 | 10° C | 75% | 1012.7 hPa | 0 mm | - | - | - |
| 1777645690 | 10° C | 75% | 1012.7 hPa | 0 mm | - | - | - |
| 1777641871 | 8.89° C | 79% | 1012.5 hPa | 0 mm | - | - | - |
| 1777641129 | 8.89° C | 79% | 1012.4 hPa | 0 mm | - | - | - |
| 1777638909 | 7.78° C | 82% | 1012.5 hPa | 0 mm | - | - | - |
| 1777637112 | 8.33° C | 77% | 1012.6 hPa | 0 mm | - | - | - |
| 1777636450 | 8.33° C | 75% | 1012.5 hPa | 0 mm | - | - | - |
| 1777634432 | 8.33° C | 75% | 1012.4 hPa | 0 mm | - | - | - |
| 1777630778 | 7.78° C | 75% | 1012.6 hPa | 0 mm | - | - | - |
| 1777628714 | 7.78° C | 75% | 1012.9 hPa | 0 mm | - | - | - |
| 1777628414 | 7.78° C | 75% | 1013 hPa | 0 mm | - | - | - |
| 1777626634 | 7.22° C | 77% | 1013.2 hPa | 0 mm | - | - | - |
| 1777625895 | 7.22° C | 79% | 1013.4 hPa | 0 mm | - | - | - |
| 1777625595 | 6.67° C | 79% | 1013.4 hPa | 0 mm | - | - | - |
| 1777624396 | 6.11° C | 82% | 1013.4 hPa | 0 mm | - | - | - |
| 1777623435 | 5.56° C | 82% | 1013.6 hPa | 0 mm | - | - | - |
| 1777620076 | 5.56° C | 82% | 1013.6 hPa | 0 mm | - | - | - |
| 1777619776 | 5.56° C | 83% | 1013.7 hPa | 0 mm | - | - | - |
| 1777618878 | 5.56° C | 87% | 1013.9 hPa | 0 mm | - | - | - |
* Rain since midnight (hover to see other rain measurements)
** Current wind speed in m/s (hover to see current wind gust speed)